Terminal Aerodrome Forecast
Issued by NWS

Home | Current Version | Previous Version | Text Only | Print | Product List | Glossary On
Versions: 1 2 3 4 5 6 7 8 9 10 11 12 13 14 15 16 17 18 19 20 21 22 23 24 25 26 27 28 29 30 31 32
000
FTUS43 KABR 131739
TAFPIR
TAF
KPIR 131739Z 1318/1418 13017KT P6SM VCSH OVC010
     FM132100 14016KT 3SM -FZRASN OVC010
     FM140200 13012KT 1SM -SN OVC010
     FM140600 VRB03KT 2SM -SN OVC015
     FM140900 26008KT P6SM OVC020
     FM141200 29012KT P6SM BKN040=

USA.gov is the U.S. government's official web portal to all federal, state and local government web resources and services.